Time;durP1;ratioP1;P1;durP2;ratioP2;P2;SDS_P1;SDS_P2;PMS_P1;PMS_P2;Temp;Humidity;BMP_temperature;BMP_pressure;BME280_temperature;BME280_humidity;BME280_pressure;Samples;Min_cycle;Max_cycle;Signal;HPM_P1;HPM_P2
2023/01/28 00:01:59;;;;;;;1.57;1.47;;;;;;;3.39;100.00;-23910.97;5015486;28;20257;-72
2023/01/28 00:04:25;;;;;;;2.80;1.70;;;;;;;3.72;100.00;-23920.25;5014997;28;20647;-72
2023/01/28 00:06:50;;;;;;;3.73;2.00;;;;;;;3.46;100.00;-23912.97;5015173;28;20198;-71
2023/01/28 00:09:15;;;;;;;1.70;1.60;;;;;;;3.72;100.00;-23920.25;5015115;28;20176;-74
2023/01/28 00:11:41;;;;;;;1.77;1.40;;;;;;;3.49;100.00;-23913.84;5014317;28;20255;-72
2023/01/28 00:14:07;;;;;;;1.50;1.40;;;;;;;3.33;100.00;-23909.13;5014814;28;20624;-73
2023/01/28 00:16:32;;;;;;;2.73;1.43;;;;;;;3.75;100.00;-23920.97;5014664;28;20258;-71
2023/01/28 00:18:58;;;;;;;2.03;1.70;;;;;;;3.30;100.00;-23908.28;5014442;28;20242;-73
2023/01/28 00:21:23;;;;;;;3.30;2.17;;;;;;;3.72;100.00;-23920.09;5014838;28;20180;-72
2023/01/28 00:23:53;;;;;;;2.00;1.60;;;;;;;3.26;100.00;-23907.28;5013561;28;20176;-72
2023/01/28 00:26:19;;;;;;;1.70;1.60;;;;;;;3.72;100.00;-23920.09;5014220;28;20184;-72
2023/01/28 00:28:45;;;;;;;2.17;1.93;;;;;;;3.54;100.00;-23915.25;5014543;28;20180;-73
2023/01/28 00:31:19;;;;;;;2.83;1.90;;;;;;;3.31;100.00;-23908.56;5014222;28;20187;-72
2023/01/28 00:33:46;;;;;;;5.20;1.70;;;;;;;3.47;100.00;-23913.13;5014306;28;20635;-72
2023/01/28 00:36:13;;;;;;;2.20;2.00;;;;;;;3.23;100.00;-23906.28;5014383;28;20208;-74
2023/01/28 00:38:39;;;;;;;1.87;1.73;;;;;;;3.60;100.00;-23916.69;5014202;28;20196;-72
2023/01/28 00:41:16;;;;;;;2.40;1.60;;;;;;;3.44;100.00;-23912.41;5014503;28;20203;-72
2023/01/28 00:43:42;;;;;;;2.40;1.87;;;;;;;3.26;100.00;-23907.13;5014121;28;20180;-75
2023/01/28 00:46:10;;;;;;;2.57;1.93;;;;;;;3.20;100.00;-23905.41;5014273;28;20643;-73
2023/01/28 00:48:38;;;;;;;2.10;1.90;;;;;;;3.37;100.00;-23910.41;5014199;28;20259;-74
2023/01/28 00:51:05;;;;;;;1.97;1.77;;;;;;;3.17;100.00;-23904.72;5014046;28;20184;-73
2023/01/28 00:53:30;;;;;;;2.47;1.90;;;;;;;3.15;100.00;-23904.00;5014180;28;20647;-71
2023/01/28 00:55:56;;;;;;;3.03;1.90;;;;;;;3.34;100.00;-23909.56;5021901;28;20218;-71
2023/01/28 00:58:23;;;;;;;1.50;1.40;;;;;;;3.29;100.00;-23908.00;5013929;28;20237;-74
2023/01/28 01:00:49;;;;;;;2.00;1.57;;;;;;;3.52;100.00;-23914.69;5012643;28;20175;-73
2023/01/28 01:03:16;;;;;;;1.60;1.50;;;;;;;3.26;100.00;-23907.28;5013941;28;20270;-73
2023/01/28 01:05:41;;;;;;;2.77;1.53;;;;;;;3.61;100.00;-23917.13;5013508;28;20199;-71
2023/01/28 01:08:07;;;;;;;2.40;1.97;;;;;;;3.41;100.00;-23911.41;5013849;28;20542;-73
2023/01/28 01:10:33;;;;;;;2.03;1.90;;;;;;;3.40;100.00;-23911.28;5013733;28;20168;-72
2023/01/28 01:12:59;;;;;;;1.87;1.77;;;;;;;3.56;100.00;-23915.81;5013782;28;20227;-71
2023/01/28 01:15:25;;;;;;;1.60;1.50;;;;;;;3.19;100.00;-23905.28;5013601;28;20782;-73
2023/01/28 01:17:52;;;;;;;4.40;2.23;;;;;;;3.40;100.00;-23911.28;5012872;28;20180;-72
2023/01/28 01:20:23;;;;;;;1.73;1.63;;;;;;;3.46;100.00;-23912.97;5013283;28;20176;-71
2023/01/28 01:22:48;;;;;;;1.87;1.77;;;;;;;3.45;100.00;-23912.69;5013843;28;20244;-72
2023/01/28 01:25:15;;;;;;;2.03;1.80;;;;;;;3.58;100.00;-23916.13;5012954;28;20639;-71
2023/01/28 01:27:41;;;;;;;1.73;1.43;;;;;;;3.63;100.00;-23917.53;5013579;28;20179;-72
2023/01/28 01:30:09;;;;;;;3.00;2.00;;;;;;;3.53;100.00;-23914.84;5013550;28;20643;-71
2023/01/28 01:32:34;;;;;;;1.73;1.37;;;;;;;3.43;100.00;-23911.97;5013437;28;20176;-73
2023/01/28 01:35:01;;;;;;;2.20;1.80;;;;;;;3.59;100.00;-23916.41;5013087;28;20192;-74
2023/01/28 01:37:27;;;;;;;1.60;1.50;;;;;;;3.63;100.00;-23917.53;5013063;28;20218;-72
2023/01/28 01:39:52;;;;;;;2.93;1.50;;;;;;;3.59;100.00;-23916.53;5013281;28;20605;-73
2023/01/28 01:42:18;;;;;;;1.73;1.63;;;;;;;3.62;100.00;-23917.41;5013204;28;20164;-73
2023/01/28 01:44:47;;;;;;;2.00;1.87;;;;;;;3.58;100.00;-23916.13;5013155;28;20596;-72
2023/01/28 01:47:14;;;;;;;1.43;1.33;;;;;;;3.22;100.00;-23906.13;5012975;28;20168;-74
2023/01/28 01:49:39;;;;;;;3.17;2.17;;;;;;;3.56;100.00;-23915.81;5012666;28;20180;-73
2023/01/28 01:52:12;;;;;;;2.13;1.60;;;;;;;3.21;100.00;-23905.84;5012922;28;20237;-72
2023/01/28 01:54:41;;;;;;;2.67;2.07;;;;;;;3.52;100.00;-23914.53;5012535;28;20188;-74
2023/01/28 01:57:11;;;;;;;2.03;1.90;;;;;;;3.57;100.00;-23915.97;5012670;28;20176;-74
2023/01/28 01:59:39;;;;;;;3.23;1.93;;;;;;;3.65;100.00;-23918.13;5016289;28;20564;-74
2023/01/28 02:02:07;;;;;;;1.93;1.70;;;;;;;3.65;100.00;-23918.13;5019198;28;20179;-71
2023/01/28 02:04:43;;;;;;;1.90;1.80;;;;;;;3.61;100.00;-23916.97;5010471;28;20323;-72
2023/01/28 02:07:11;;;;;;;2.00;1.90;;;;;;;3.36;100.00;-23910.00;5019018;28;20200;-72
2023/01/28 02:09:37;;;;;;;2.13;1.80;;;;;;;3.77;100.00;-23921.69;5012585;28;20187;-72
2023/01/28 02:12:11;;;;;;;1.90;1.80;;;;;;;3.77;100.00;-23921.69;5012612;28;20231;-73
2023/01/28 02:14:43;;;;;;;1.87;1.60;;;;;;;3.68;100.00;-23918.97;5010858;28;20206;-73
2023/01/28 02:17:08;;;;;;;1.27;1.20;;;;;;;3.54;100.00;-23915.25;5017195;28;20180;-72
2023/01/28 02:19:47;;;;;;;2.90;2.27;;;;;;;3.64;100.00;-23917.81;5020200;28;20682;-72
2023/01/28 02:22:38;;;;;;;2.00;1.90;;;;;;;3.78;100.00;-23921.97;4996938;28;20180;-71
2023/01/28 02:25:18;;;;;;;2.60;1.73;;;;;;;3.57;100.00;-23915.97;5010142;28;20199;-72
2023/01/28 02:28:14;;;;;;;1.40;1.23;;;;;;;3.74;100.00;-23920.81;5010417;28;20184;-71
2023/01/28 02:30:52;;;;;;;1.70;1.50;;;;;;;3.66;100.00;-23918.53;5010241;28;20262;-73
2023/01/28 02:33:38;;;;;;;1.53;1.43;;;;;;;3.67;100.00;-23918.69;5022501;28;20191;-73
2023/01/28 02:36:25;;;;;;;1.67;1.53;;;;;;;3.63;100.00;-23917.69;4997004;28;20242;-73
2023/01/28 02:38:54;;;;;;;1.93;1.73;;;;;;;3.84;100.00;-23923.53;5015252;28;20270;-73
2023/01/28 02:41:30;;;;;;;2.13;1.80;;;;;;;3.79;100.00;-23922.25;5012029;28;20176;-74
2023/01/28 02:43:56;;;;;;;1.73;1.60;;;;;;;3.54;100.00;-23915.25;5010312;28;20187;-74
2023/01/28 02:49:15;;;;;;;2.13;1.60;;;;;;;3.78;100.00;-23921.97;5004154;28;20666;-73
2023/01/28 02:52:18;;;;;;;2.33;1.60;;;;;;;3.81;100.00;-23922.81;5018345;28;20188;-73
2023/01/28 02:55:05;;;;;;;1.83;1.70;;;;;;;3.76;100.00;-23921.25;5018425;28;20200;-72
2023/01/28 02:57:42;;;;;;;1.80;1.70;;;;;;;3.70;100.00;-23919.53;5012938;28;20183;-71
2023/01/28 03:00:31;;;;;;;1.73;1.63;;;;;;;3.76;100.00;-23921.25;5010144;28;20577;-74
2023/01/28 03:03:14;;;;;;;1.70;1.40;;;;;;;3.88;100.00;-23924.66;5019956;28;20195;-73
2023/01/28 03:06:02;;;;;;;2.03;1.70;;;;;;;3.49;100.00;-23913.69;5011951;28;20399;-73
2023/01/28 03:36:48;;;;;;;1.43;1.27;;;;;;;3.26;100.00;-23907.28;5016241;28;20223;-72
2023/01/28 03:39:14;;;;;;;1.87;1.77;;;;;;;3.58;100.00;-23916.25;5014343;28;20257;-72
2023/01/28 03:41:40;;;;;;;1.50;1.40;;;;;;;3.66;100.00;-23918.41;5023208;28;20187;-72
2023/01/28 03:46:50;;;;;;;1.47;1.37;;;;;;;3.23;100.00;-23906.28;5021685;28;20288;-72
2023/01/28 03:49:16;;;;;;;1.40;1.30;;;;;;;3.20;100.00;-23905.56;5022372;28;20215;-72
2023/01/28 03:51:42;;;;;;;2.30;1.40;;;;;;;3.27;100.00;-23907.41;5021671;28;20702;-73
2023/01/28 03:54:08;;;;;;;1.80;1.70;;;;;;;3.43;100.00;-23911.97;5013643;28;20647;-73
2023/01/28 03:56:36;;;;;;;1.83;1.37;;;;;;;3.20;100.00;-23905.41;5021348;28;20262;-73
2023/01/28 03:59:03;;;;;;;1.00;1.00;;;;;;;3.27;100.00;-23907.41;5006867;28;20178;-71
2023/01/28 04:01:28;;;;;;;1.30;1.30;;;;;;;3.25;100.00;-23907.00;5023697;28;20200;-73
2023/01/28 04:03:54;;;;;;;1.60;1.50;;;;;;;3.22;100.00;-23906.13;5016919;28;20342;-71
2023/01/28 04:06:19;;;;;;;1.60;1.50;;;;;;;3.40;100.00;-23911.28;5021210;28;20612;-72
2023/01/28 04:08:47;;;;;;;1.60;1.50;;;;;;;3.64;100.00;-23917.97;5014850;28;20654;-72
2023/01/28 04:11:18;;;;;;;1.50;1.40;;;;;;;3.46;100.00;-23912.97;5012939;28;20212;-73
2023/01/28 04:13:45;;;;;;;2.27;1.77;;;;;;;3.49;100.00;-23913.84;5023002;28;20564;-72
2023/01/28 04:16:11;;;;;;;1.30;1.20;;;;;;;3.42;100.00;-23911.84;5023331;28;20289;-73
2023/01/28 04:18:37;;;;;;;1.40;1.33;;;;;;;3.04;100.00;-23901.16;5015092;28;20275;-75
2023/01/28 04:21:02;;;;;;;1.20;1.20;;;;;;;3.29;100.00;-23908.00;5014264;28;20271;-72
2023/01/28 04:23:28;;;;;;;1.43;1.33;;;;;;;3.08;100.00;-23902.16;5021456;28;20274;-73
2023/01/28 04:25:54;;;;;;;1.73;1.63;;;;;;;3.12;100.00;-23903.28;5022652;28;20327;-71
2023/01/28 04:28:20;;;;;;;1.73;1.63;;;;;;;3.20;100.00;-23905.56;5019642;28;20183;-71
2023/01/28 04:30:46;;;;;;;1.20;1.17;;;;;;;3.18;100.00;-23905.00;5016800;28;20250;-73
2023/01/28 04:33:11;;;;;;;1.50;1.40;;;;;;;3.07;100.00;-23902.00;5023065;28;20180;-73
2023/01/28 04:35:37;;;;;;;1.63;1.27;;;;;;;3.34;100.00;-23909.56;5013986;28;20326;-73
2023/01/28 04:38:02;;;;;;;2.20;1.63;;;;;;;3.08;100.00;-23902.16;5020538;28;20210;-72
2023/01/28 04:40:28;;;;;;;1.60;1.50;;;;;;;2.90;100.00;-23897.00;5021168;28;20613;-73
2023/01/28 04:42:57;;;;;;;1.60;1.50;;;;;;;2.90;100.00;-23897.16;5020668;28;20187;-73
2023/01/28 04:45:23;;;;;;;2.17;1.80;;;;;;;2.90;100.00;-23897.00;5021351;28;20196;-72
2023/01/28 04:47:48;;;;;;;1.60;1.50;;;;;;;3.13;100.00;-23903.56;5022974;28;20187;-73
2023/01/28 04:50:14;;;;;;;1.93;1.77;;;;;;;2.78;100.00;-23893.59;5013470;28;20584;-71
2023/01/28 04:52:40;;;;;;;1.57;1.47;;;;;;;2.79;100.00;-23893.88;5021690;28;20212;-73
2023/01/28 04:55:06;;;;;;;1.43;1.33;;;;;;;3.10;100.00;-23902.72;5013436;28;20235;-73
2023/01/28 04:57:31;;;;;;;3.43;2.13;;;;;;;2.83;100.00;-23895.00;5011365;28;20733;-73
2023/01/28 04:59:57;;;;;;;1.73;1.63;;;;;;;2.67;100.00;-23890.72;5021980;28;20180;-72
2023/01/28 05:02:22;;;;;;;1.40;1.30;;;;;;;2.61;100.00;-23889.03;5013732;28;20180;-74
2023/01/28 05:04:48;;;;;;;2.30;1.77;;;;;;;2.66;100.00;-23890.44;5013468;28;20226;-72
2023/01/28 05:07:13;;;;;;;2.07;1.67;;;;;;;2.81;100.00;-23894.59;5019171;28;20176;-72
2023/01/28 05:09:38;;;;;;;1.83;1.50;;;;;;;2.71;100.00;-23891.59;5019924;28;20690;-71
2023/01/28 05:12:04;;;;;;;1.53;1.43;;;;;;;2.90;100.00;-23897.00;5020774;28;20235;-74
2023/01/28 05:14:29;;;;;;;1.87;1.47;;;;;;;2.87;100.00;-23896.28;5012185;28;20203;-73
2023/01/28 05:16:55;;;;;;;1.73;1.53;;;;;;;3.07;100.00;-23901.84;5019653;28;20598;-72
2023/01/28 05:19:20;;;;;;;3.00;1.77;;;;;;;3.10;100.00;-23902.84;5012309;28;20192;-72
2023/01/28 05:21:46;;;;;;;2.50;1.60;;;;;;;3.16;100.00;-23904.28;5021991;28;20191;-73
2023/01/28 05:24:11;;;;;;;1.80;1.63;;;;;;;3.13;100.00;-23903.44;5016488;28;20194;-72
2023/01/28 05:26:37;;;;;;;1.80;1.70;;;;;;;2.81;100.00;-23894.44;5015691;28;20680;-71
2023/01/28 05:29:03;;;;;;;2.80;1.57;;;;;;;3.24;100.00;-23906.56;5010406;28;20211;-73
2023/01/28 05:31:29;;;;;;;2.20;1.63;;;;;;;3.27;100.00;-23907.41;5021896;28;20188;-72
2023/01/28 05:33:54;;;;;;;3.60;1.87;;;;;;;3.33;100.00;-23909.13;5014216;28;20194;-72
2023/01/28 05:36:20;;;;;;;2.23;1.67;;;;;;;3.17;100.00;-23904.72;5019265;28;20722;-73
2023/01/28 05:38:45;;;;;;;1.60;1.50;;;;;;;3.21;100.00;-23905.72;5020913;28;20191;-73
2023/01/28 05:41:11;;;;;;;1.83;1.60;;;;;;;3.03;100.00;-23900.88;5005345;28;20619;-73
2023/01/28 05:43:37;;;;;;;2.70;1.70;;;;;;;3.00;100.00;-23899.88;5012170;28;20187;-73
2023/01/28 05:46:03;;;;;;;1.83;1.67;;;;;;;3.30;100.00;-23908.41;5011174;28;20188;-73
2023/01/28 05:48:28;;;;;;;6.53;1.93;;;;;;;3.29;100.00;-23908.00;5011689;28;20722;-73
2023/01/28 05:50:54;;;;;;;2.60;2.20;;;;;;;3.11;100.00;-23903.00;5019573;28;20556;-74
2023/01/28 05:53:20;;;;;;;2.00;1.83;;;;;;;3.46;100.00;-23912.84;5015281;28;20184;-71
2023/01/28 05:55:49;;;;;;;2.07;1.90;;;;;;;3.54;100.00;-23915.25;5023761;28;20659;-74
2023/01/28 05:58:15;;;;;;;2.00;1.80;;;;;;;3.13;100.00;-23903.44;5045078;28;20262;-71
2023/01/28 06:00:41;;;;;;;1.47;1.37;;;;;;;3.21;100.00;-23905.72;5036194;28;20199;-73
2023/01/28 06:03:06;;;;;;;2.07;1.77;;;;;;;3.20;100.00;-23905.41;5015331;28;20534;-73
2023/01/28 06:05:32;;;;;;;1.57;1.47;;;;;;;3.53;100.00;-23914.97;5023196;28;20190;-74
2023/01/28 06:07:57;;;;;;;1.63;1.53;;;;;;;3.20;100.00;-23905.56;5014536;28;20180;-74
2023/01/28 06:10:23;;;;;;;2.90;2.07;;;;;;;3.54;100.00;-23915.25;5012347;28;20628;-72
2023/01/28 06:12:48;;;;;;;2.00;1.90;;;;;;;3.63;100.00;-23917.53;5021839;28;20223;-73
2023/01/28 06:15:13;;;;;;;2.17;1.97;;;;;;;3.62;100.00;-23917.25;5012693;28;20199;-74
2023/01/28 06:17:39;;;;;;;2.13;1.57;;;;;;;3.38;100.00;-23910.69;5018336;28;20218;-73
2023/01/28 06:20:05;;;;;;;2.00;1.70;;;;;;;3.66;100.00;-23918.41;5014563;28;20261;-72
2023/01/28 06:22:30;;;;;;;1.50;1.40;;;;;;;3.64;100.00;-23917.81;5017869;28;20204;-73
2023/01/28 06:24:55;;;;;;;2.03;1.83;;;;;;;3.68;100.00;-23919.09;5020555;28;20195;-72
2023/01/28 06:27:21;;;;;;;2.80;1.87;;;;;;;3.78;100.00;-23921.81;5012036;28;20184;-73
2023/01/28 06:29:46;;;;;;;2.73;1.73;;;;;;;3.83;100.00;-23923.38;5011292;28;20180;-73
2023/01/28 06:32:12;;;;;;;1.47;1.40;;;;;;;3.45;100.00;-23912.56;5018964;28;20242;-73
2023/01/28 06:34:37;;;;;;;1.67;1.57;;;;;;;3.58;100.00;-23916.13;5018761;28;20179;-74
2023/01/28 06:37:03;;;;;;;2.60;1.43;;;;;;;3.84;100.00;-23923.66;5013447;28;20183;-73
2023/01/28 06:39:31;;;;;;;2.47;1.80;;;;;;;3.69;100.00;-23919.25;5017460;28;20692;-72
2023/01/28 06:41:57;;;;;;;1.70;1.60;;;;;;;3.65;100.00;-23918.25;5014484;28;20176;-74
2023/01/28 06:44:22;;;;;;;1.87;1.50;;;;;;;3.69;100.00;-23919.25;5012016;28;20329;-73
2023/01/28 06:46:48;;;;;;;2.70;1.97;;;;;;;3.43;100.00;-23912.13;5010888;28;20674;-72
2023/01/28 06:49:14;;;;;;;1.57;1.47;;;;;;;3.59;100.00;-23916.41;5020257;28;20563;-72
2023/01/28 06:51:39;;;;;;;2.97;2.10;;;;;;;3.77;100.00;-23921.53;5011750;28;20653;-74
2023/01/28 06:54:05;;;;;;;2.03;1.87;;;;;;;3.91;100.00;-23925.66;5012427;28;20180;-74
2023/01/28 06:56:30;;;;;;;2.20;1.97;;;;;;;4.10;100.00;-23930.78;5011155;28;20237;-74
2023/01/28 06:58:56;;;;;;;1.87;1.57;;;;;;;4.28;100.00;-23936.06;5013103;28;20188;-72
2023/01/28 07:01:21;;;;;;;2.43;1.90;;;;;;;4.11;100.00;-23931.22;5018197;28;20180;-73
2023/01/28 07:03:46;;;;;;;1.90;1.70;;;;;;;4.12;100.00;-23931.34;5012463;28;20524;-74
2023/01/28 07:06:12;;;;;;;1.50;1.40;;;;;;;4.04;100.00;-23929.09;5011779;28;20207;-71
2023/01/28 07:08:38;;;;;;;2.53;2.07;;;;;;;4.40;100.00;-23939.34;5012074;28;20176;-73
2023/01/28 07:11:04;;;;;;;3.40;2.20;;;;;;;4.35;100.00;-23937.91;5011261;28;20191;-72
2023/01/28 07:13:30;;;;;;;2.90;2.33;;;;;;;4.60;100.00;-23944.88;5020646;28;20263;-74
2023/01/28 07:15:55;;;;;;;2.00;1.80;;;;;;;4.63;100.00;-23945.88;5013653;28;20221;-74
2023/01/28 07:18:21;;;;;;;1.93;1.80;;;;;;;4.30;100.00;-23936.50;5013956;28;20194;-73
2023/01/28 07:20:46;;;;;;;2.50;1.83;;;;;;;4.69;100.00;-23947.44;5021074;28;20176;-72
2023/01/28 07:23:12;;;;;;;2.40;1.90;;;;;;;4.47;100.00;-23941.31;5014880;28;20180;-73
2023/01/28 07:25:37;;;;;;;3.23;1.83;;;;;;;4.68;100.00;-23947.16;5015242;28;20184;-74
2023/01/28 07:28:02;;;;;;;2.57;1.83;;;;;;;4.05;100.00;-23929.50;5016313;28;20219;-72
2023/01/28 07:30:28;;;;;;;1.77;1.60;;;;;;;4.08;100.00;-23930.38;5025664;28;20187;-73
2023/01/28 07:32:58;;;;;;;1.87;1.77;;;;;;;4.67;100.00;-23947.03;5016493;28;20195;-74
2023/01/28 07:35:24;;;;;;;3.73;2.30;;;;;;;4.60;100.00;-23945.03;5019580;28;20632;-74
2023/01/28 07:37:52;;;;;;;2.83;1.77;;;;;;;4.55;100.00;-23943.47;5014180;28;20180;-74
2023/01/28 07:40:17;;;;;;;2.23;1.87;;;;;;;4.31;100.00;-23936.91;5022289;28;20184;-74
2023/01/28 07:42:43;;;;;;;2.00;1.70;;;;;;;4.48;100.00;-23941.47;5013624;28;20187;-74
2023/01/28 07:45:09;;;;;;;1.73;1.57;;;;;;;4.72;100.00;-23948.31;5024715;28;20321;-73
2023/01/28 07:47:34;;;;;;;3.87;1.97;;;;;;;4.68;100.00;-23947.31;5020025;28;20644;-70
2023/01/28 07:50:00;;;;;;;2.10;1.60;;;;;;;4.60;100.00;-23945.03;5012941;28;20545;-73
2023/01/28 07:52:25;;;;;;;2.17;1.87;;;;;;;4.96;100.00;-23955.13;5022198;28;20183;-71
2023/01/28 07:54:51;;;;;;;2.07;1.80;;;;;;;4.84;100.00;-23951.72;5021666;28;20214;-76
2023/01/28 07:57:22;;;;;;;2.13;1.60;;;;;;;4.73;100.00;-23948.72;5017504;28;20187;-72
2023/01/28 07:59:49;;;;;;;4.33;2.10;;;;;;;5.07;100.00;-23958.25;5014783;28;20208;-74
2023/01/28 08:02:15;;;;;;;2.10;1.90;;;;;;;5.02;100.00;-23956.84;5017558;28;20663;-74
2023/01/28 08:04:41;;;;;;;1.93;1.83;;;;;;;5.22;100.00;-23962.38;5023307;28;20733;-73
2023/01/28 08:07:06;;;;;;;2.67;2.20;;;;;;;5.61;100.00;-23973.34;5016104;28;20176;-73
2023/01/28 08:09:33;;;;;;;2.80;2.27;;;;;;;5.93;100.00;-23982.44;5020277;28;20184;-71
2023/01/28 08:12:01;;;;;;;1.87;1.77;;;;;;;5.37;100.00;-23966.66;5022442;28;20668;-74
2023/01/28 08:14:26;;;;;;;2.23;2.03;;;;;;;6.04;100.00;-23985.56;5014555;28;20238;-76
2023/01/28 08:16:51;;;;;;;1.90;1.80;;;;;;;5.55;100.00;-23971.63;5014403;28;20208;-75
2023/01/28 08:19:17;;;;;;;2.17;1.97;;;;;;;5.94;100.00;-23982.72;5014500;28;20191;-72
2023/01/28 08:21:43;;;;;;;2.70;2.00;;;;;;;6.21;100.00;-23990.25;5020029;28;20191;-73
2023/01/28 08:24:08;;;;;;;2.30;1.87;;;;;;;6.36;100.00;-23994.50;5019655;28;20246;-72
2023/01/28 08:26:34;;;;;;;2.03;1.83;;;;;;;6.39;100.00;-23995.22;5018027;28;20211;-73
2023/01/28 08:28:59;;;;;;;2.13;1.93;;;;;;;6.27;100.00;-23991.81;5015764;28;20188;-74
2023/01/28 08:31:28;;;;;;;1.97;1.73;;;;;;;6.63;100.00;-24002.03;5021091;28;20191;-73
2023/01/28 08:33:53;;;;;;;2.30;2.00;;;;;;;6.22;100.00;-23990.53;5020764;28;20186;-75
2023/01/28 08:36:20;;;;;;;3.33;2.23;;;;;;;6.38;100.00;-23994.94;5020280;28;20215;-72
2023/01/28 08:38:45;;;;;;;2.17;1.97;;;;;;;5.81;100.00;-23979.00;5018570;28;20187;-74
2023/01/28 08:41:10;;;;;;;1.83;1.73;;;;;;;5.94;100.00;-23982.72;5014924;28;20180;-73
2023/01/28 08:43:36;;;;;;;2.27;1.97;;;;;;;6.07;100.00;-23986.25;5021242;28;20191;-72
2023/01/28 08:46:04;;;;;;;2.17;1.77;;;;;;;6.26;100.00;-23991.66;5017407;28;20184;-72
2023/01/28 08:48:30;;;;;;;2.00;1.87;;;;;;;6.09;100.00;-23986.84;5013322;28;20188;-71
2023/01/28 08:50:58;;;;;;;2.17;1.97;;;;;;;6.18;100.00;-23989.38;5013108;28;20187;-71
2023/01/28 08:53:23;;;;;;;2.77;2.17;;;;;;;5.84;100.00;-23979.88;5012276;28;20219;-71
2023/01/28 08:55:49;;;;;;;2.27;2.03;;;;;;;5.59;100.00;-23972.91;5019527;28;20676;-72
2023/01/28 08:58:17;;;;;;;1.80;1.70;;;;;;;5.63;100.00;-23973.91;5017999;28;20176;-73
2023/01/28 09:00:43;;;;;;;1.93;1.83;;;;;;;6.06;100.00;-23986.13;5013291;28;20643;-72
2023/01/28 09:03:09;;;;;;;1.60;1.50;;;;;;;5.64;100.00;-23974.31;5013161;28;20610;-73
2023/01/28 09:05:36;;;;;;;1.97;1.67;;;;;;;5.93;100.00;-23982.44;5013513;28;20175;-72
2023/01/28 09:08:07;;;;;;;2.37;1.90;;;;;;;5.86;100.00;-23980.44;5013382;28;20179;-74
2023/01/28 09:10:33;;;;;;;1.87;1.77;;;;;;;5.45;100.00;-23968.78;5012799;28;20253;-73
2023/01/28 09:13:03;;;;;;;1.93;1.67;;;;;;;5.42;100.00;-23968.06;5012550;28;20687;-72
2023/01/28 09:15:28;;;;;;;1.40;1.30;;;;;;;5.36;100.00;-23966.38;5012923;28;20547;-74
2023/01/28 09:17:58;;;;;;;1.97;1.63;;;;;;;5.52;100.00;-23970.78;5013103;28;20259;-71
2023/01/28 09:20:23;;;;;;;2.30;2.10;;;;;;;5.83;100.00;-23979.44;5013165;28;20650;-71
2023/01/28 09:22:48;;;;;;;2.63;1.83;;;;;;;5.74;100.00;-23977.16;5013271;28;20259;-73
2023/01/28 09:25:14;;;;;;;1.90;1.63;;;;;;;5.60;100.00;-23973.19;5013003;28;20550;-71
2023/01/28 09:27:39;;;;;;;2.50;1.80;;;;;;;5.86;100.00;-23980.28;5013060;28;20238;-70
2023/01/28 09:30:05;;;;;;;1.67;1.57;;;;;;;5.62;100.00;-23973.63;5013233;28;20524;-74
2023/01/28 09:32:31;;;;;;;2.67;2.10;;;;;;;5.94;100.00;-23982.72;5012209;28;20184;-73
2023/01/28 09:34:56;;;;;;;2.17;1.83;;;;;;;6.17;100.00;-23989.25;5013144;28;20206;-71
2023/01/28 09:37:22;;;;;;;1.77;1.67;;;;;;;6.04;100.00;-23985.41;5012628;28;20616;-73
2023/01/28 09:39:47;;;;;;;1.80;1.70;;;;;;;6.40;100.00;-23995.50;5012145;28;20975;-73
2023/01/28 09:42:19;;;;;;;2.53;2.30;;;;;;;6.42;100.00;-23996.06;5012476;28;20173;-72
2023/01/28 09:45:22;;;;;;;2.43;2.13;;;;;;;7.03;100.00;-24013.22;5012451;28;20164;-72
2023/01/28 09:47:54;;;;;;;1.80;1.70;;;;;;;7.24;100.00;-24019.03;5011328;28;20192;-73
2023/01/28 09:50:31;;;;;;;2.37;1.90;;;;;;;7.12;100.00;-24015.66;5012004;28;20222;-72
2023/01/28 09:53:03;;;;;;;1.70;1.60;;;;;;;7.27;100.00;-24020.03;5011887;28;20188;-70
2023/01/28 09:55:34;;;;;;;1.83;1.73;;;;;;;7.20;100.00;-24017.91;5011746;28;20195;-72
2023/01/28 09:58:00;;;;;;;1.77;1.50;;;;;;;7.67;100.00;-24031.09;5012854;28;20208;-73
2023/01/28 10:00:49;;;;;;;6.20;2.20;;;;;;;7.72;100.00;-24032.66;5012108;28;20188;-73
2023/01/28 10:03:32;;;;;;;2.37;1.80;;;;;;;7.90;100.00;-24037.63;5012002;28;20258;-73
2023/01/28 10:06:27;;;;;;;1.80;1.70;;;;;;;7.39;100.00;-24023.44;5012214;28;20176;-71
2023/01/28 10:09:26;;;;;;;2.13;1.90;;;;;;;7.37;100.00;-24022.88;5011756;28;20179;-73
2023/01/28 10:11:57;;;;;;;1.93;1.50;;;;;;;7.54;100.00;-24027.69;5011572;28;20673;-72
2023/01/28 10:14:45;;;;;;;1.70;1.60;;;;;;;7.64;100.00;-24030.25;5020684;28;20190;-71
2023/01/28 10:17:27;;;;;;;3.57;2.00;;;;;;;7.54;100.00;-24027.69;5012034;28;20176;-72
2023/01/28 10:20:16;;;;;;;1.70;1.60;;;;;;;7.20;100.00;-24018.06;5011667;28;20651;-70
2023/01/28 10:22:44;;;;;;;2.97;2.10;;;;;;;7.35;100.00;-24022.31;5011957;28;20184;-73
2023/01/28 10:25:21;;;;;;;2.10;1.90;;;;;;;7.27;100.00;-24020.03;5010918;28;20563;-73
2023/01/28 10:27:49;;;;;;;1.60;1.50;;;;;;;7.07;100.00;-24014.50;5011935;28;20175;-73
2023/01/28 10:30:26;;;;;;;4.07;2.20;;;;;;;7.22;100.00;-24018.47;5011764;28;20603;-73
2023/01/28 10:32:58;;;;;;;1.60;1.50;;;;;;;6.92;100.00;-24010.13;5011471;28;20570;-72
2023/01/28 10:35:25;;;;;;;2.53;2.10;;;;;;;7.10;100.00;-24015.34;5011748;28;20231;-71
2023/01/28 10:38:01;;;;;;;2.33;2.13;;;;;;;6.86;100.00;-24008.56;5011979;28;20168;-73
2023/01/28 10:40:26;;;;;;;2.67;2.07;;;;;;;6.96;100.00;-24011.38;5012264;28;20769;-73
2023/01/28 10:42:52;;;;;;;3.77;2.00;;;;;;;7.49;100.00;-24026.28;5019384;28;20176;-71
2023/01/28 10:45:25;;;;;;;2.47;2.00;;;;;;;7.69;100.00;-24031.81;5011625;28;20179;-74
2023/01/28 10:47:59;;;;;;;2.10;1.90;;;;;;;7.61;100.00;-24029.41;5011663;28;20168;-73
2023/01/28 10:50:27;;;;;;;2.07;1.87;;;;;;;7.09;100.00;-24014.94;5010941;28;20601;-73
2023/01/28 10:52:54;;;;;;;1.60;1.50;;;;;;;6.76;100.00;-24005.72;5011617;28;20182;-72
2023/01/28 10:55:20;;;;;;;2.33;1.90;;;;;;;7.02;100.00;-24013.09;5011320;28;20663;-72
2023/01/28 10:57:46;;;;;;;2.60;1.90;;;;;;;7.33;100.00;-24021.59;5011617;28;20678;-71
2023/01/28 11:00:35;;;;;;;1.73;1.60;;;;;;;7.17;100.00;-24017.06;5011871;28;20203;-73
2023/01/28 11:03:01;;;;;;;4.73;2.40;;;;;;;6.99;100.00;-24012.09;5011233;28;20194;-72
2023/01/28 11:05:30;;;;;;;2.70;2.37;;;;;;;7.45;100.00;-24025.00;5011716;28;20184;-73
2023/01/28 11:08:21;;;;;;;2.27;2.03;;;;;;;7.52;100.00;-24026.97;5011423;28;20176;-72
2023/01/28 11:10:48;;;;;;;8.77;2.20;;;;;;;7.86;100.00;-24036.63;5011414;28;20172;-73
2023/01/28 11:13:19;;;;;;;2.90;1.93;;;;;;;7.49;100.00;-24026.13;5011621;28;20223;-73
2023/01/28 11:15:47;;;;;;;2.13;1.67;;;;;;;7.40;100.00;-24023.72;5011683;28;20567;-72
2023/01/28 11:18:25;;;;;;;2.43;2.07;;;;;;;7.39;100.00;-24023.31;5011489;28;20181;-72
2023/01/28 11:20:57;;;;;;;2.30;2.10;;;;;;;7.59;100.00;-24028.97;5010412;28;20171;-73
2023/01/28 11:23:27;;;;;;;2.30;2.07;;;;;;;7.67;100.00;-24031.25;5000307;28;20172;-73
2023/01/28 11:26:05;;;;;;;1.70;1.60;;;;;;;7.68;100.00;-24031.53;5001510;28;20177;-73
2023/01/28 11:28:31;;;;;;;2.83;1.90;;;;;;;7.70;100.00;-24032.09;4992269;28;20168;-72
2023/01/28 11:30:59;;;;;;;6.87;2.90;;;;;;;7.47;100.00;-24025.72;4992380;28;20260;-72
2023/01/28 11:33:35;;;;;;;2.57;2.33;;;;;;;7.34;100.00;-24021.88;4991678;28;20173;-72
2023/01/28 11:36:14;;;;;;;2.57;1.97;;;;;;;7.07;100.00;-24014.50;4993434;28;20215;-73
2023/01/28 11:38:52;;;;;;;2.67;2.33;;;;;;;7.05;100.00;-24013.94;4992275;28;20171;-73
2023/01/28 11:41:24;;;;;;;3.10;2.53;;;;;;;6.94;100.00;-24010.81;4991708;28;20621;-72
2023/01/28 11:43:50;;;;;;;6.27;2.60;;;;;;;6.77;100.00;-24006.00;4992075;28;20173;-75
2023/01/28 11:46:18;;;;;;;2.33;2.13;;;;;;;6.92;100.00;-24010.13;4992152;28;20172;-76
2023/01/28 11:49:03;;;;;;;4.20;2.80;;;;;;;6.83;100.00;-24007.69;4991856;28;20608;-73
2023/01/28 11:51:43;;;;;;;3.07;2.20;;;;;;;6.96;100.00;-24011.38;4992100;28;20199;-74
2023/01/28 11:54:28;;;;;;;2.63;2.37;;;;;;;6.81;100.00;-24007.13;4999207;28;20168;-76
2023/01/28 11:57:02;;;;;;;2.53;2.10;;;;;;;6.37;100.00;-23994.66;5002521;28;20204;-76
2023/01/28 11:59:46;;;;;;;2.30;2.10;;;;;;;6.69;100.00;-24003.72;5000728;28;20166;-76
2023/01/28 12:02:33;;;;;;;3.00;1.83;;;;;;;6.55;100.00;-23999.91;5011326;28;20179;-74
2023/01/28 12:05:13;;;;;;;3.13;2.43;;;;;;;6.30;100.00;-23992.78;5034289;28;20175;-73
2023/01/28 12:08:10;;;;;;;2.23;2.03;;;;;;;6.45;100.00;-23996.91;5033952;28;20170;-73